Time;durP1;ratioP1;P1;durP2;ratioP2;P2;SDS_P1;SDS_P2;PMS_P1;PMS_P2;Temp;Humidity;BMP_temperature;BMP_pressure;BME280_temperature;BME280_humidity;BME280_pressure;Samples;Min_cycle;Max_cycle;Signal;HPM_P1;HPM_P2
2022/11/18 00:04:09;;;;;;;3.00;2.00;;;;;;;6.61;100.00;99220.47;10455205;28;20068;-71
2022/11/18 00:09:10;;;;;;;4.53;2.40;;;;;;;6.53;100.00;99220.00;10454617;28;20435;-71
2022/11/18 00:14:19;;;;;;;6.03;2.30;;;;;;;6.50;100.00;99221.00;10454685;28;20062;-73
2022/11/18 00:19:24;;;;;;;3.28;2.22;;;;;;;6.40;100.00;99220.66;10451724;28;20130;-71
2022/11/18 00:24:26;;;;;;;2.55;2.00;;;;;;;6.39;100.00;99226.75;10454040;28;20057;-71
2022/11/18 00:29:30;;;;;;;3.70;2.30;;;;;;;6.38;100.00;99232.84;10453740;28;20551;-72
2022/11/18 00:34:32;;;;;;;10.00;2.78;;;;;;;6.36;100.00;99234.69;10453833;28;20053;-71
2022/11/18 00:39:33;;;;;;;3.45;2.38;;;;;;;6.39;100.00;99250.06;10453592;28;20099;-72
2022/11/18 00:44:36;;;;;;;3.03;2.47;;;;;;;6.53;100.00;99256.28;10453864;28;20053;-73
2022/11/18 00:49:38;;;;;;;3.42;2.28;;;;;;;6.63;100.00;99262.69;10451024;28;20109;-70
2022/11/18 00:54:41;;;;;;;3.50;1.95;;;;;;;6.63;100.00;99261.84;10453481;28;20110;-72
2022/11/18 00:59:44;;;;;;;8.32;2.40;;;;;;;6.60;100.00;99265.44;10453509;28;20045;-71
2022/11/18 01:04:45;;;;;;;4.47;2.13;;;;;;;6.57;100.00;99273.41;10453069;28;20049;-72
2022/11/18 01:09:47;;;;;;;4.07;2.10;;;;;;;6.59;100.00;99281.91;10453265;28;20454;-71
2022/11/18 01:14:50;;;;;;;6.38;2.33;;;;;;;6.66;100.00;99285.88;10452807;28;20060;-71
2022/11/18 01:25:12;;;;;;;5.18;2.03;;;;;;;6.94;100.00;99302.59;10935093;23;20344;-71
2022/11/18 01:30:16;;;;;;;4.47;1.95;;;;;;;7.08;100.00;99303.63;10210837;29;20052;-73
2022/11/18 01:35:18;;;;;;;3.17;1.88;;;;;;;7.14;100.00;99308.50;10210571;29;20078;-72
2022/11/18 01:40:20;;;;;;;3.97;2.28;;;;;;;7.20;100.00;99322.91;10210141;29;20115;-71
2022/11/18 01:45:31;;;;;;;5.63;1.80;;;;;;;7.26;100.00;99325.19;10216723;29;20055;-73
2022/11/18 01:50:36;;;;;;;3.40;1.97;;;;;;;7.27;100.00;99331.19;10215640;29;20122;-71
2022/11/18 01:55:47;;;;;;;3.47;1.88;;;;;;;7.28;100.00;99336.31;10217482;29;20062;-72
2022/11/18 02:00:50;;;;;;;5.75;2.08;;;;;;;7.33;100.00;99338.66;10217367;29;20136;-71
2022/11/18 02:05:53;;;;;;;1.60;1.42;;;;;;;7.36;100.00;99338.50;10216969;29;20051;-68
2022/11/18 02:10:55;;;;;;;7.75;2.38;;;;;;;7.42;100.00;99343.34;10217240;29;20047;-67
2022/11/18 02:16:12;;;;;;;5.43;2.05;;;;;;;7.39;100.00;99346.13;10216578;29;20103;-67
2022/11/18 02:21:37;;;;;;;4.50;1.90;;;;;;;7.43;100.00;99350.22;10214319;29;20060;-67
2022/11/18 02:27:27;;;;;;;3.00;2.00;;;;;;;7.45;100.00;99358.78;10215947;29;20570;-68
2022/11/18 02:32:39;;;;;;;5.35;1.98;;;;;;;7.49;100.00;99358.63;10216080;29;20059;-68
2022/11/18 02:37:49;;;;;;;4.70;2.05;;;;;;;7.54;100.00;99354.00;10216153;29;20044;-68
2022/11/18 02:43:00;;;;;;;2.13;1.65;;;;;;;7.56;100.00;99372.94;10216772;29;20055;-68
2022/11/18 02:48:10;;;;;;;2.78;1.92;;;;;;;7.64;100.00;99386.34;10213547;29;20054;-67
2022/11/18 02:53:17;;;;;;;4.82;2.30;;;;;;;7.64;100.00;99386.34;10214111;29;20048;-68
2022/11/18 02:58:22;;;;;;;4.95;2.17;;;;;;;7.68;100.00;99385.28;10215165;29;20126;-68
2022/11/18 03:03:30;;;;;;;5.60;2.38;;;;;;;7.65;100.00;99395.81;10215248;29;20098;-68
2022/11/18 03:08:41;;;;;;;4.22;2.30;;;;;;;7.66;100.00;99397.50;10215346;29;20094;-67
2022/11/18 03:14:03;;;;;;;4.10;2.58;;;;;;;7.60;100.00;99397.84;10214490;29;20059;-71
2022/11/18 03:19:18;;;;;;;5.57;2.17;;;;;;;7.59;100.00;99403.91;10211707;29;20418;-71
2022/11/18 03:24:32;;;;;;;4.65;2.15;;;;;;;7.58;100.00;99410.03;10213960;29;20106;-69
2022/11/18 03:29:40;;;;;;;1.90;1.73;;;;;;;7.56;100.00;99412.72;10214095;29;20044;-69
2022/11/18 03:34:48;;;;;;;3.55;2.03;;;;;;;7.56;100.00;99419.69;10214043;29;20086;-69
2022/11/18 03:39:54;;;;;;;3.10;2.15;;;;;;;7.57;100.00;99424.78;10213124;29;20052;-72
2022/11/18 03:45:05;;;;;;;5.38;2.05;;;;;;;7.56;100.00;99432.66;10213152;29;20578;-68
2022/11/18 03:50:16;;;;;;;5.60;2.20;;;;;;;7.59;100.00;99438.53;10210846;29;20107;-69
2022/11/18 03:55:24;;;;;;;3.10;2.40;;;;;;;7.54;100.00;99445.72;10212923;29;20062;-68
2022/11/18 04:00:32;;;;;;;9.65;2.40;;;;;;;7.52;100.00;99454.50;10212618;29;20319;-68
2022/11/18 04:05:40;;;;;;;3.47;2.47;;;;;;;7.47;100.00;99454.75;10212022;29;20048;-69
2022/11/18 04:10:52;;;;;;;6.25;2.40;;;;;;;7.46;100.00;99469.47;10212337;29;20446;-71
2022/11/18 04:15:54;;;;;;;5.93;2.90;;;;;;;7.36;100.00;99478.66;10212815;29;20052;-68
2022/11/18 04:20:58;;;;;;;;;;;;;;;7.30;100.00;99479.81;10210062;29;20135;-68
2022/11/18 04:26:00;;;;;;;3.88;2.72;;;;;;;7.22;100.00;99487.97;10210543;29;19927;-70
2022/11/18 04:31:03;;;;;;;5.13;3.00;;;;;;;7.16;100.00;99490.88;10210481;29;20052;-69
2022/11/18 04:36:07;;;;;;;2.10;1.88;;;;;;;7.04;100.00;99494.06;10210254;29;20105;-69
2022/11/18 04:41:10;;;;;;;9.65;2.67;;;;;;;6.87;100.00;99503.53;10227533;29;20059;-68
2022/11/18 04:46:11;;;;;;;2.35;2.17;;;;;;;6.76;100.00;99508.38;10249105;29;20440;-69
2022/11/18 04:51:14;;;;;;;7.72;2.80;;;;;;;6.72;100.00;99509.44;10247116;29;20110;-68
2022/11/18 04:56:16;;;;;;;5.68;2.55;;;;;;;6.63;100.00;99519.34;10249227;29;20070;-69
2022/11/18 05:01:19;;;;;;;3.70;2.53;;;;;;;6.59;100.00;99522.13;10248970;29;20094;-69
2022/11/18 05:06:22;;;;;;;6.00;2.63;;;;;;;6.48;100.00;99526.09;10248639;29;20498;-69
2022/11/18 05:16:43;;;;;;;3.42;2.47;;;;;;;6.32;100.00;99538.91;10247325;28;20104;-69
2022/11/18 05:21:46;;;;;;;7.35;2.78;;;;;;;6.25;100.00;99542.69;10255797;29;20059;-69
2022/11/18 05:26:48;;;;;;;3.38;2.67;;;;;;;6.26;100.00;99550.38;10222676;29;1044508;-69
2022/11/18 05:31:50;;;;;;;5.35;2.78;;;;;;;6.29;100.00;99549.41;10258098;29;20063;-69
2022/11/18 05:36:53;;;;;;;6.47;2.72;;;;;;;6.20;100.00;99558.44;10257583;29;20078;-68
2022/11/18 05:47:14;;;;;;;4.75;2.80;;;;;;;6.04;100.00;99571.22;10255166;29;20061;-68
2022/11/18 05:52:17;;;;;;;3.28;2.40;;;;;;;5.99;100.00;99579.16;10257300;29;20112;-69
2022/11/18 05:57:19;;;;;;;4.78;2.80;;;;;;;5.92;100.00;99588.13;10256886;29;20105;-68
2022/11/18 06:02:24;;;;;;;4.25;2.97;;;;;;;5.90;100.00;99600.28;10257416;29;20047;-67
2022/11/18 06:07:34;;;;;;;7.72;3.30;;;;;;;5.95;100.00;99597.50;10256585;29;20086;-72
2022/11/18 06:12:40;;;;;;;3.28;2.63;;;;;;;5.96;100.00;99604.38;10256507;29;20055;-73
2022/11/18 06:17:49;;;;;;;7.40;3.13;;;;;;;5.86;100.00;99607.34;10253938;29;20073;-69
2022/11/18 06:22:56;;;;;;;6.00;3.17;;;;;;;5.84;100.00;99616.94;10256096;29;20054;-68
2022/11/18 06:28:02;;;;;;;8.77;3.47;;;;;;;5.81;100.00;99637.75;10255914;28;20043;-69
2022/11/18 06:33:04;;;;;;;6.50;3.20;;;;;;;5.82;100.00;99639.47;10255501;29;20122;-69
2022/11/18 06:38:06;;;;;;;5.55;3.70;;;;;;;5.74;100.00;99649.28;10255640;29;20051;-70
2022/11/18 06:48:31;;;;;;;5.65;3.40;;;;;;;5.71;100.00;99659.78;10252872;29;20049;-68
2022/11/18 06:53:35;;;;;;;6.43;3.25;;;;;;;5.71;100.00;99670.13;10249225;28;20462;-69
2022/11/18 06:58:37;;;;;;;2.55;2.35;;;;;;;5.75;100.00;99675.09;10252504;28;20055;-73
2022/11/18 07:03:38;;;;;;;10.10;3.63;;;;;;;5.78;100.00;99680.16;10255530;29;20051;-68
2022/11/18 07:08:43;;;;;;;6.07;3.22;;;;;;;5.74;100.00;99682.94;10253744;29;20796;-69
2022/11/18 07:13:47;;;;;;;8.90;3.75;;;;;;;5.73;100.00;99696.78;10255109;29;20503;-68
2022/11/18 07:18:52;;;;;;;7.15;3.38;;;;;;;5.67;100.00;99696.13;10249388;29;20242;-70
2022/11/18 07:23:56;;;;;;;5.68;3.42;;;;;;;5.64;100.00;99705.75;10252815;29;20051;-69
2022/11/18 07:28:57;;;;;;;6.43;3.22;;;;;;;5.65;100.00;99716.06;10253972;29;20095;-68
2022/11/18 07:33:59;;;;;;;10.27;3.33;;;;;;;5.63;100.00;99723.06;10254182;29;20069;-69
2022/11/18 07:39:05;;;;;;;3.83;3.07;;;;;;;5.62;100.00;99723.97;10252959;28;20306;-69
2022/11/18 07:44:06;;;;;;;4.00;3.40;;;;;;;5.64;100.00;99729.91;10253435;29;20670;-69
2022/11/18 07:49:11;;;;;;;3.93;3.50;;;;;;;5.70;100.00;99740.91;10250621;29;20083;-73
2022/11/18 07:54:18;;;;;;;4.30;3.70;;;;;;;5.72;100.00;99747.75;10252129;28;20856;-69
2022/11/18 07:59:20;;;;;;;6.20;3.83;;;;;;;5.83;100.00;99762.84;10251627;28;20047;-69
2022/11/18 08:04:23;;;;;;;6.15;4.00;;;;;;;5.89;100.00;99759.16;10252855;29;20068;-69
2022/11/18 08:09:26;;;;;;;7.20;3.35;;;;;;;5.97;100.00;99761.44;10252224;29;20053;-68
2022/11/18 08:14:29;;;;;;;9.52;3.60;;;;;;;6.12;100.00;99773.78;10252138;29;20072;-72
2022/11/18 08:19:31;;;;;;;6.30;4.15;;;;;;;6.20;100.00;99773.50;10249489;29;20478;-69
2022/11/18 08:24:35;;;;;;;10.20;4.53;;;;;;;6.21;100.00;99784.66;10252108;29;20055;-70
2022/11/18 08:29:36;;;;;;;7.53;3.75;;;;;;;6.17;100.00;99789.97;10252268;29;20130;-74
2022/11/18 08:34:38;;;;;;;6.47;4.17;;;;;;;6.12;100.00;99799.69;10251310;29;20110;-75
2022/11/18 08:39:41;;;;;;;8.00;3.38;;;;;;;6.26;100.00;99796.53;10251086;29;20082;-71
2022/11/18 08:44:43;;;;;;;6.60;3.78;;;;;;;6.62;100.00;99805.44;10251487;29;20118;-71
2022/11/18 08:49:44;;;;;;;7.40;3.70;;;;;;;6.70;100.00;99798.16;10248841;29;20501;-69
2022/11/18 08:54:47;;;;;;;4.32;3.63;;;;;;;6.93;100.00;99809.31;10250661;28;20307;-72
2022/11/18 08:59:49;;;;;;;10.27;3.72;;;;;;;7.15;100.00;99803.16;10250579;29;20203;-71
2022/11/18 09:04:52;;;;;;;5.32;3.25;;;;;;;7.30;100.00;99811.16;10244034;28;20458;-72
2022/11/18 09:09:55;;;;;;;3.78;2.08;;;;;;;7.45;100.00;99820.84;10250875;29;20117;-72
2022/11/18 09:14:58;;;;;;;6.85;3.00;;;;;;;8.09;100.00;99811.84;10250277;29;20043;-73
2022/11/18 09:20:00;;;;;;;7.25;2.63;;;;;;;8.94;100.00;99822.41;10248155;29;20464;-76
2022/11/18 09:25:03;;;;;;;4.38;2.47;;;;;;;9.17;100.00;99812.50;10250334;29;20105;-77
2022/11/18 09:30:07;;;;;;;2.83;2.33;;;;;;;8.79;100.00;99839.63;10250929;29;20113;-78
2022/11/18 09:35:08;;;;;;;5.28;3.20;;;;;;;9.75;100.00;99843.34;10250899;29;20106;-76
2022/11/18 09:40:18;;;;;;;6.55;3.08;;;;;;;9.97;100.00;99842.97;10246979;29;20098;-77
2022/11/18 09:45:28;;;;;;;5.38;2.42;;;;;;;10.52;100.00;99864.25;10250072;29;20117;-76
2022/11/18 09:50:30;;;;;;;8.27;2.90;;;;;;;10.53;100.00;99875.50;10247912;29;20057;-78
2022/11/18 09:55:38;;;;;;;8.40;3.20;;;;;;;9.51;100.00;99883.63;10249962;29;20066;-75
2022/11/18 10:00:43;;;;;;;6.63;3.45;;;;;;;8.97;100.00;99884.66;10249874;29;20051;-72
2022/11/18 10:05:53;;;;;;;5.13;3.33;;;;;;;8.59;100.00;99895.25;10253102;28;20055;-74
2022/11/18 10:11:08;;;;;;;4.90;3.45;;;;;;;8.66;100.00;99891.44;10257041;29;20051;-71
2022/11/18 10:16:29;;;;;;;7.18;3.50;;;;;;;8.63;100.00;99894.19;10257099;29;20110;-76
2022/11/18 10:21:51;;;;;;;4.95;2.65;;;;;;;9.24;100.00;99891.97;10254215;29;20395;-74
2022/11/18 10:26:58;;;;;;;6.68;3.20;;;;;;;9.23;100.00;99905.06;10256427;29;20055;-74
2022/11/18 10:32:05;;;;;;;5.93;2.42;;;;;;;8.76;100.00;99917.84;10256468;29;20098;-75
2022/11/18 10:37:22;;;;;;;6.05;2.70;;;;;;;8.73;100.00;99911.00;10255928;29;20118;-71
2022/11/18 10:42:34;;;;;;;11.27;3.28;;;;;;;8.78;100.00;99915.13;10256392;29;20080;-73
2022/11/18 10:47:36;;;;;;;8.93;3.07;;;;;;;8.84;100.00;99917.44;10253211;29;20095;-72
2022/11/18 10:52:53;;;;;;;7.28;2.72;;;;;;;8.78;100.00;99922.94;10255591;29;20470;-70
2022/11/18 10:58:02;;;;;;;2.72;2.25;;;;;;;8.80;100.00;99923.72;10255013;29;20110;-72
2022/11/18 11:03:25;;;;;;;6.00;2.80;;;;;;;8.83;100.00;99926.19;10255008;29;20059;-66
2022/11/18 11:08:27;;;;;;;4.43;2.28;;;;;;;8.86;100.00;99934.66;10252789;28;20550;-66
2022/11/18 11:13:35;;;;;;;7.28;2.97;;;;;;;8.93;100.00;99936.97;10254516;28;20066;-66
2022/11/18 11:18:42;;;;;;;3.85;2.58;;;;;;;8.86;100.00;99939.88;10251829;29;20047;-65
2022/11/18 11:23:45;;;;;;;9.25;2.90;;;;;;;9.01;100.00;99943.44;10254165;28;20055;-66
2022/11/18 11:29:01;;;;;;;12.60;2.65;;;;;;;9.36;100.00;99942.59;10254127;29;20462;-67
2022/11/18 11:34:16;;;;;;;6.53;2.53;;;;;;;9.22;100.00;99934.63;10253658;29;20495;-68
2022/11/18 11:39:53;;;;;;;6.53;3.20;;;;;;;9.34;100.00;99946.19;10253485;29;20491;-66
2022/11/18 11:45:17;;;;;;;6.78;2.50;;;;;;;9.33;100.00;99947.94;10253172;29;20051;-65
2022/11/18 11:50:28;;;;;;;7.82;2.83;;;;;;;9.35;100.00;99946.13;10251341;29;20118;-65
2022/11/18 11:55:59;;;;;;;3.83;2.63;;;;;;;9.21;100.00;99961.59;10253047;29;20051;-66
2022/11/18 12:01:14;;;;;;;4.88;2.45;;;;;;;9.36;100.00;99958.22;10252680;29;20106;-65
2022/11/18 12:06:15;;;;;;;5.18;2.72;;;;;;;9.73;100.00;99959.81;10251411;28;20106;-64
2022/11/18 12:11:31;;;;;;;3.65;2.58;;;;;;;9.84;100.00;99961.81;10251437;28;20400;-65
2022/11/18 12:16:45;;;;;;;7.93;2.55;;;;;;;10.17;100.00;99953.13;10252323;29;20504;-65
2022/11/18 12:22:02;;;;;;;7.65;2.85;;;;;;;10.83;100.00;99955.56;10250642;29;20105;-65
2022/11/18 12:27:14;;;;;;;8.70;2.67;;;;;;;10.62;100.00;99968.06;10251508;28;20052;-66
2022/11/18 12:32:33;;;;;;;9.20;3.00;;;;;;;9.88;100.00;99960.75;10251660;29;20115;-68
2022/11/18 12:37:58;;;;;;;7.10;3.05;;;;;;;9.59;100.00;99968.34;10251712;29;20054;-67
2022/11/18 12:48:38;;;;;;;5.38;2.83;;;;;;;9.75;100.00;99969.22;10248795;29;20176;-66
2022/11/18 12:53:43;;;;;;;6.88;2.67;;;;;;;10.27;100.00;99967.31;10251212;29;20498;-65
2022/11/18 12:58:48;;;;;;;6.68;3.10;;;;;;;10.04;100.00;99974.66;10250722;29;20098;-64
2022/11/18 13:03:52;;;;;;;6.38;2.90;;;;;;;9.81;100.00;99983.69;10251154;29;20051;-65
2022/11/18 13:08:59;;;;;;;7.25;2.28;;;;;;;9.78;100.00;99989.91;10248727;28;20474;-64
2022/11/18 13:19:25;;;;;;;7.28;2.30;;;;;;;9.55;100.00;99996.34;10247557;29;20047;-67
2022/11/18 13:24:27;;;;;;;4.35;2.38;;;;;;;9.66;100.00;100001.78;10250151;28;20059;-64
2022/11/18 13:29:44;;;;;;;6.65;2.38;;;;;;;9.63;100.00;100001.13;10250595;29;20069;-65
2022/11/18 13:34:50;;;;;;;2.83;2.50;;;;;;;9.60;100.00;100001.28;10250166;29;20117;-65
2022/11/18 13:39:55;;;;;;;9.82;2.42;;;;;;;9.67;100.00;100005.25;10254317;28;20542;-65
2022/11/18 13:44:59;;;;;;;7.53;2.60;;;;;;;9.63;100.00;100014.16;10257482;29;20059;-65
2022/11/18 13:50:14;;;;;;;5.63;2.42;;;;;;;9.58;100.00;100006.56;10253062;29;20065;-64
2022/11/18 13:55:26;;;;;;;8.57;2.70;;;;;;;9.56;100.00;100004.97;10256417;29;20075;-65
2022/11/18 14:00:32;;;;;;;6.20;2.78;;;;;;;9.39;100.00;100004.94;10255840;29;20047;-65
2022/11/18 14:05:35;;;;;;;5.55;2.35;;;;;;;9.46;100.00;100010.66;10256504;29;20055;-64
2022/11/18 14:10:43;;;;;;;3.38;2.25;;;;;;;9.34;100.00;100011.28;10256865;29;20235;-65
2022/11/18 14:15:45;;;;;;;6.43;2.10;;;;;;;9.28;100.00;100018.47;10256311;29;20054;-76
2022/11/18 14:20:54;;;;;;;6.43;2.03;;;;;;;9.23;100.00;100015.25;10253625;29;20080;-78
2022/11/18 14:25:58;;;;;;;3.97;1.88;;;;;;;9.32;100.00;100018.31;10256135;29;20063;-78
2022/11/18 14:31:06;;;;;;;6.15;1.90;;;;;;;9.25;100.00;100017.78;10256497;29;20436;-77
2022/11/18 14:36:16;;;;;;;4.63;2.17;;;;;;;9.23;100.00;100028.28;10255997;29;20051;-78
2022/11/18 14:41:45;;;;;;;3.55;2.10;;;;;;;9.16;100.00;100033.88;10255469;29;20086;-79
2022/11/18 14:46:47;;;;;;;3.88;2.30;;;;;;;9.12;100.00;100033.19;10255512;29;20047;-79
2022/11/18 14:51:51;;;;;;;2.92;1.92;;;;;;;9.03;100.00;100042.28;10253835;28;20047;-78
2022/11/18 14:56:57;;;;;;;3.90;2.20;;;;;;;8.98;100.00;100052.94;10250883;28;20429;-65
2022/11/18 15:01:58;;;;;;;6.72;2.67;;;;;;;8.94;100.00;100058.34;10254789;29;20059;-67
2022/11/18 15:07:01;;;;;;;2.90;2.30;;;;;;;8.73;100.00;100061.88;10253851;29;20502;-67
2022/11/18 15:12:05;;;;;;;4.78;3.30;;;;;;;8.59;100.00;100074.72;10254316;29;20050;-68
2022/11/18 15:17:07;;;;;;;7.45;2.90;;;;;;;8.34;100.00;100078.41;10251888;29;20441;-68
2022/11/18 15:22:10;;;;;;;4.65;2.40;;;;;;;8.17;100.00;100081.75;10253985;29;20107;-68
2022/11/18 15:27:12;;;;;;;3.63;2.63;;;;;;;8.04;100.00;100084.06;10251717;29;20090;-69
2022/11/18 15:32:15;;;;;;;4.93;2.45;;;;;;;7.97;100.00;100075.69;10252643;29;20066;-68
2022/11/18 15:37:18;;;;;;;6.47;2.47;;;;;;;7.95;100.00;100083.56;10253496;29;20118;-68
2022/11/18 15:42:20;;;;;;;6.57;3.00;;;;;;;7.95;100.00;100082.72;10253299;29;20099;-69
2022/11/18 15:47:22;;;;;;;5.78;3.05;;;;;;;7.92;100.00;100094.09;10250720;29;20106;-70
2022/11/18 15:52:27;;;;;;;4.80;2.90;;;;;;;7.84;100.00;100097.00;10252736;29;20608;-70
2022/11/18 15:57:28;;;;;;;5.30;2.80;;;;;;;7.79;100.00;100098.97;10250792;28;20089;-70
2022/11/18 16:02:32;;;;;;;5.68;3.13;;;;;;;7.74;100.00;100100.91;10251620;28;20058;-72
2022/11/18 16:07:35;;;;;;;9.00;4.13;;;;;;;7.74;100.00;100100.91;10252296;29;20051;-72
2022/11/18 16:12:48;;;;;;;5.97;4.05;;;;;;;7.71;100.00;100103.63;10251873;29;20435;-71
2022/11/18 16:17:50;;;;;;;6.30;3.85;;;;;;;7.71;100.00;100101.03;10249489;29;20047;-71
2022/11/18 16:22:55;;;;;;;4.78;3.85;;;;;;;7.72;100.00;100103.56;10250095;28;20059;-71
2022/11/18 16:27:57;;;;;;;10.63;5.15;;;;;;;7.70;100.00;100110.56;10250324;29;20106;-71
2022/11/18 16:32:59;;;;;;;6.28;4.65;;;;;;;7.80;100.00;100111.03;10249884;29;20118;-75
2022/11/18 16:38:02;;;;;;;10.57;5.82;;;;;;;7.83;100.00;100108.31;10250014;29;20051;-75
2022/11/18 16:43:05;;;;;;;11.60;6.00;;;;;;;7.88;100.00;100120.25;10246670;29;20078;-75
2022/11/18 16:48:07;;;;;;;15.65;6.60;;;;;;;7.89;100.00;100120.19;10247482;29;20134;-74
2022/11/18 16:53:10;;;;;;;11.60;6.38;;;;;;;7.91;100.00;100127.91;10249758;29;20110;-74
2022/11/18 16:58:12;;;;;;;10.65;6.15;;;;;;;7.93;100.00;100129.53;10247556;28;20497;-74
2022/11/18 17:03:14;;;;;;;11.45;5.28;;;;;;;7.93;100.00;100131.28;10248888;28;20099;-74
2022/11/18 17:08:17;;;;;;;10.80;5.15;;;;;;;7.95;100.00;100129.47;10249615;29;20055;-74
2022/11/18 17:13:21;;;;;;;12.68;5.97;;;;;;;7.94;100.00;100131.22;10248193;29;20588;-75
2022/11/18 17:18:22;;;;;;;15.13;6.03;;;;;;;7.94;100.00;100136.41;10247500;29;20106;-75
2022/11/18 17:23:27;;;;;;;12.15;7.05;;;;;;;7.94;100.00;100144.22;10250103;29;20121;-75
2022/11/18 17:28:30;;;;;;;12.98;6.95;;;;;;;7.93;100.00;100147.72;10249938;29;20055;-76
2022/11/18 17:33:32;;;;;;;10.13;6.95;;;;;;;7.94;100.00;100148.59;10248851;29;20455;-75
2022/11/18 17:38:37;;;;;;;19.75;7.45;;;;;;;7.91;100.00;100159.09;10249190;29;20048;-76
2022/11/18 17:43:39;;;;;;;15.02;6.82;;;;;;;7.90;100.00;100158.25;10248683;29;20212;-76
2022/11/18 17:48:40;;;;;;;13.70;6.72;;;;;;;7.92;100.00;100165.97;10246507;29;20113;-73
2022/11/18 17:53:43;;;;;;;16.73;8.07;;;;;;;7.91;100.00;100167.75;10209015;29;20048;-69
2022/11/18 17:58:48;;;;;;;17.85;9.15;;;;;;;7.91;100.00;100170.34;10239968;29;20491;-71
2022/11/18 18:03:51;;;;;;;13.82;7.88;;;;;;;7.92;100.00;100176.38;10247663;29;20487;-75
2022/11/18 18:08:57;;;;;;;15.85;8.38;;;;;;;7.92;100.00;100181.56;10247809;29;20055;-70
2022/11/18 18:14:12;;;;;;;18.35;9.40;;;;;;;7.89;100.00;100187.75;10247551;29;20047;-69
2022/11/18 18:19:16;;;;;;;14.18;7.88;;;;;;;7.90;100.00;100188.59;10245663;29;20079;-70
2022/11/18 18:24:19;;;;;;;16.85;8.77;;;;;;;7.88;100.00;100190.41;10248893;28;20263;-69
2022/11/18 18:29:21;;;;;;;12.88;8.82;;;;;;;7.89;100.00;100190.34;10254511;29;20534;-69
2022/11/18 18:34:22;;;;;;;26.05;15.70;;;;;;;7.87;100.00;100192.13;10254529;29;20116;-73
2022/11/18 18:39:25;;;;;;;25.80;14.60;;;;;;;7.87;100.00;100199.94;10254449;29;20523;-75
2022/11/18 18:46:27;;;;;;;18.33;12.57;;;;;;;7.86;100.00;100195.66;10254066;29;20066;-76
2022/11/18 18:49:50;;;;;;;21.38;9.95;;;;;;;7.84;100.00;100205.28;10251616;29;20061;-73
2022/11/18 18:54:53;;;;;;;22.55;12.32;;;;;;;7.85;100.00;100201.75;10253577;29;20113;-75
2022/11/18 18:59:55;;;;;;;23.05;11.43;;;;;;;7.87;100.00;100210.31;10253478;29;20529;-74
2022/11/18 19:04:58;;;;;;;27.90;12.15;;;;;;;7.86;100.00;100211.25;10253675;29;20065;-76
2022/11/18 19:10:05;;;;;;;16.75;10.65;;;;;;;7.85;100.00;100212.16;10253289;29;20047;-77
2022/11/18 19:15:09;;;;;;;30.83;15.00;;;;;;;7.85;100.00;100214.75;10253103;29;20057;-75
2022/11/18 19:25:35;;;;;;;27.20;16.60;;;;;;;7.90;100.00;100224.97;10253279;29;20081;-75
2022/11/18 19:30:37;;;;;;;24.15;12.57;;;;;;;7.89;100.00;100224.13;10252816;29;20217;-74
2022/11/18 19:35:39;;;;;;;21.77;11.35;;;;;;;7.89;100.00;100234.50;10251119;28;20047;-75
2022/11/18 19:40:42;;;;;;;23.20;11.77;;;;;;;7.89;100.00;100244.91;10252115;29;20463;-75
2022/11/18 19:45:50;;;;;;;19.65;11.13;;;;;;;7.89;100.00;100237.09;10251650;29;20509;-77
2022/11/18 19:51:04;;;;;;;17.38;10.52;;;;;;;7.87;100.00;100246.69;10249846;29;20054;-76
2022/11/18 19:56:10;;;;;;;22.02;10.35;;;;;;;7.88;100.00;100248.41;10251530;29;20122;-73
2022/11/18 20:01:15;;;;;;;24.50;14.48;;;;;;;7.90;100.00;100251.78;10250943;29;20083;-75
2022/11/18 20:06:18;;;;;;;17.92;11.35;;;;;;;7.84;100.00;100255.47;10251194;29;20106;-76
2022/11/18 20:11:22;;;;;;;21.27;12.02;;;;;;;7.85;100.00;100262.38;10251197;29;20051;-75
2022/11/18 20:16:25;;;;;;;22.38;11.95;;;;;;;7.83;100.00;100260.72;10251396;29;20126;-69
2022/11/18 20:21:29;;;;;;;21.40;13.10;;;;;;;7.85;100.00;100264.13;10248300;29;20051;-75
2022/11/18 20:26:36;;;;;;;17.92;12.25;;;;;;;7.85;100.00;100269.31;10250140;29;20109;-75
2022/11/18 20:31:38;;;;;;;21.65;12.90;;;;;;;7.85;100.00;100269.31;10250345;29;20180;-76
2022/11/18 20:36:40;;;;;;;23.92;13.48;;;;;;;7.89;100.00;100277.81;10250931;29;20051;-75
2022/11/18 20:43:10;;;;;;;23.00;13.82;;;;;;;7.87;100.00;100272.69;10251726;29;20051;-74
2022/11/18 20:47:06;;;;;;;27.65;15.82;;;;;;;7.87;100.00;100277.88;10248115;28;20075;-76
2022/11/18 20:52:08;;;;;;;31.35;17.58;;;;;;;7.86;100.00;100281.38;10250556;29;20055;-75
2022/11/18 20:57:12;;;;;;;29.33;16.15;;;;;;;7.85;100.00;100284.91;10247447;29;20047;-76
2022/11/18 21:02:14;;;;;;;24.48;15.45;;;;;;;7.82;100.00;100285.00;10250379;29;20079;-76
2022/11/18 21:07:17;;;;;;;27.35;16.13;;;;;;;7.83;100.00;100289.28;10250479;29;20473;-76
2022/11/18 21:12:20;;;;;;;25.15;15.45;;;;;;;7.82;100.00;100291.06;10250077;29;20297;-76
2022/11/18 21:17:21;;;;;;;29.83;16.45;;;;;;;7.80;100.00;100298.06;10247899;29;20055;-77
2022/11/18 21:22:23;;;;;;;33.10;17.80;;;;;;;7.84;100.00;100304.00;10249690;29;20051;-76
2022/11/18 21:27:26;;;;;;;33.38;18.33;;;;;;;7.83;100.00;100302.28;10250007;29;20106;-75
2022/11/18 21:32:28;;;;;;;29.60;17.30;;;;;;;7.83;100.00;100315.28;10250643;29;20047;-76
2022/11/18 21:37:32;;;;;;;27.63;15.35;;;;;;;7.85;100.00;100321.28;10257761;29;20055;-77
2022/11/18 21:42:35;;;;;;;13.88;9.45;;;;;;;7.71;100.00;100322.66;10253812;29;20077;-77
2022/11/18 21:47:37;;;;;;;11.93;7.22;;;;;;;7.60;100.00;100320.47;10247667;29;20051;-72
2022/11/18 21:52:39;;;;;;;9.80;5.57;;;;;;;7.45;100.00;100329.69;10249886;29;20061;-71
2022/11/18 21:57:43;;;;;;;9.30;5.20;;;;;;;7.33;100.00;100332.75;10249764;28;20051;-72
2022/11/18 22:02:45;;;;;;;4.88;4.05;;;;;;;7.26;100.00;100333.88;10256707;29;20047;-70
2022/11/18 22:07:46;;;;;;;5.57;4.75;;;;;;;7.21;100.00;100336.63;10256861;29;20050;-69
2022/11/18 22:12:50;;;;;;;9.07;5.05;;;;;;;7.19;100.00;100344.47;10257014;29;20065;-71
2022/11/18 22:17:52;;;;;;;8.90;5.72;;;;;;;7.19;100.00;100344.47;10254303;29;20089;-71
2022/11/18 22:22:53;;;;;;;10.07;6.65;;;;;;;7.17;100.00;100351.47;10256312;29;20148;-71
2022/11/18 22:27:56;;;;;;;11.27;7.70;;;;;;;7.12;100.00;100347.34;10256183;29;20051;-71
2022/11/18 22:32:58;;;;;;;16.02;9.50;;;;;;;7.02;100.00;100355.44;10256336;29;20055;-71
2022/11/18 22:38:00;;;;;;;17.95;10.38;;;;;;;6.99;100.00;100357.31;10256379;29;20047;-70
2022/11/18 22:43:03;;;;;;;13.52;8.93;;;;;;;6.91;100.00;100365.38;10255813;29;20089;-70
2022/11/18 22:48:05;;;;;;;17.83;10.25;;;;;;;6.89;100.00;100374.94;10253114;29;20051;-71
2022/11/18 22:53:06;;;;;;;25.50;11.88;;;;;;;6.81;100.00;100377.81;10255268;29;20495;-69
2022/11/18 22:58:09;;;;;;;17.83;10.75;;;;;;;6.80;100.00;100376.09;10254968;29;20286;-70
2022/11/18 23:03:11;;;;;;;21.50;10.80;;;;;;;6.69;100.00;100387.72;10255136;29;20054;-70
2022/11/18 23:08:13;;;;;;;32.47;13.80;;;;;;;6.54;100.00;100399.41;10254533;29;20056;-70
2022/11/18 23:18:35;;;;;;;26.08;13.70;;;;;;;5.92;100.00;100414.28;10251748;29;20388;-71
2022/11/18 23:23:37;;;;;;;28.08;12.85;;;;;;;5.74;100.00;100424.28;10253831;29;20530;-71
2022/11/18 23:28:41;;;;;;;20.25;11.63;;;;;;;5.52;100.00;100424.03;10254120;29;20462;-71
2022/11/18 23:33:43;;;;;;;21.65;11.57;;;;;;;5.44;100.00;100428.59;10253729;29;20113;-71
2022/11/18 23:38:46;;;;;;;21.23;10.32;;;;;;;5.30;100.00;100437.56;10253890;29;20058;-71
2022/11/18 23:43:50;;;;;;;23.45;10.80;;;;;;;5.14;100.00;100430.19;10253221;29;20074;-72
2022/11/18 23:48:52;;;;;;;23.75;10.63;;;;;;;5.06;100.00;100442.50;10251029;29;20101;-72
2022/11/18 23:53:57;;;;;;;19.80;10.35;;;;;;;4.95;100.00;100444.50;10252891;29;20106;-71
2022/11/18 23:59:00;;;;;;;27.63;11.93;;;;;;;4.84;100.00;100443.06;10252714;29;20071;-71
